sensor_id;sensor_type;location;lat;lon;timestamp;P1;durP1;ratioP1;P2;durP2;ratioP2
34765;SDS011;20984;43.508;1.504;2023-07-24T00:02:03;13.95;;;6.90;;
34765;SDS011;20984;43.508;1.504;2023-07-24T00:04:30;13.10;;;7.05;;
34765;SDS011;20984;43.508;1.504;2023-07-24T00:06:56;15.35;;;6.63;;
34765;SDS011;20984;43.508;1.504;2023-07-24T00:09:22;13.35;;;6.80;;
34765;SDS011;20984;43.508;1.504;2023-07-24T00:11:47;16.00;;;6.65;;
34765;SDS011;20984;43.508;1.504;2023-07-24T00:14:14;13.15;;;6.75;;
34765;SDS011;20984;43.508;1.504;2023-07-24T00:16:40;12.48;;;7.13;;
34765;SDS011;20984;43.508;1.504;2023-07-24T00:19:06;10.85;;;6.95;;
34765;SDS011;20984;43.508;1.504;2023-07-24T00:21:31;10.30;;;6.97;;
34765;SDS011;20984;43.508;1.504;2023-07-24T00:23:57;14.40;;;7.68;;
34765;SDS011;20984;43.508;1.504;2023-07-24T00:26:22;10.50;;;6.72;;
34765;SDS011;20984;43.508;1.504;2023-07-24T00:28:48;13.07;;;6.97;;
34765;SDS011;20984;43.508;1.504;2023-07-24T00:31:14;9.88;;;6.65;;
34765;SDS011;20984;43.508;1.504;2023-07-24T00:33:39;12.63;;;6.95;;
34765;SDS011;20984;43.508;1.504;2023-07-24T00:36:05;8.93;;;7.05;;
34765;SDS011;20984;43.508;1.504;2023-07-24T00:38:31;12.90;;;7.43;;
34765;SDS011;20984;43.508;1.504;2023-07-24T00:40:56;11.63;;;7.47;;
34765;SDS011;20984;43.508;1.504;2023-07-24T00:43:22;13.10;;;7.40;;
34765;SDS011;20984;43.508;1.504;2023-07-24T00:45:48;14.43;;;7.00;;
34765;SDS011;20984;43.508;1.504;2023-07-24T00:48:14;11.10;;;7.57;;
34765;SDS011;20984;43.508;1.504;2023-07-24T00:50:41;13.85;;;7.90;;
34765;SDS011;20984;43.508;1.504;2023-07-24T00:53:08;14.23;;;7.22;;
34765;SDS011;20984;43.508;1.504;2023-07-24T00:55:35;15.55;;;7.30;;
34765;SDS011;20984;43.508;1.504;2023-07-24T00:58:01;13.27;;;6.97;;
34765;SDS011;20984;43.508;1.504;2023-07-24T01:00:28;9.77;;;6.93;;
34765;SDS011;20984;43.508;1.504;2023-07-24T01:02:54;10.05;;;6.95;;
34765;SDS011;20984;43.508;1.504;2023-07-24T01:05:21;11.50;;;7.68;;
34765;SDS011;20984;43.508;1.504;2023-07-24T01:07:50;17.45;;;6.78;;
34765;SDS011;20984;43.508;1.504;2023-07-24T01:10:16;11.15;;;7.20;;
34765;SDS011;20984;43.508;1.504;2023-07-24T01:15:24;11.32;;;7.30;;
34765;SDS011;20984;43.508;1.504;2023-07-24T01:17:56;11.90;;;6.90;;
34765;SDS011;20984;43.508;1.504;2023-07-24T01:20:24;11.93;;;7.00;;
34765;SDS011;20984;43.508;1.504;2023-07-24T01:25:23;13.80;;;7.93;;
34765;SDS011;20984;43.508;1.504;2023-07-24T01:27:56;14.18;;;7.88;;
34765;SDS011;20984;43.508;1.504;2023-07-24T01:30:22;12.55;;;7.57;;
34765;SDS011;20984;43.508;1.504;2023-07-24T01:32:47;12.45;;;7.53;;
34765;SDS011;20984;43.508;1.504;2023-07-24T01:35:14;11.52;;;6.35;;
34765;SDS011;20984;43.508;1.504;2023-07-24T01:37:40;13.95;;;7.90;;
34765;SDS011;20984;43.508;1.504;2023-07-24T01:40:07;10.50;;;6.18;;
34765;SDS011;20984;43.508;1.504;2023-07-24T01:42:35;9.23;;;5.57;;
34765;SDS011;20984;43.508;1.504;2023-07-24T01:45:02;7.40;;;5.15;;
34765;SDS011;20984;43.508;1.504;2023-07-24T01:47:28;8.55;;;5.25;;
34765;SDS011;20984;43.508;1.504;2023-07-24T01:49:55;9.00;;;6.18;;
34765;SDS011;20984;43.508;1.504;2023-07-24T01:52:21;12.70;;;7.05;;
34765;SDS011;20984;43.508;1.504;2023-07-24T01:54:46;8.27;;;6.55;;
34765;SDS011;20984;43.508;1.504;2023-07-24T01:57:12;8.60;;;6.78;;
34765;SDS011;20984;43.508;1.504;2023-07-24T01:59:38;7.95;;;5.88;;
34765;SDS011;20984;43.508;1.504;2023-07-24T02:02:03;10.88;;;7.05;;
34765;SDS011;20984;43.508;1.504;2023-07-24T02:04:29;8.93;;;7.28;;
34765;SDS011;20984;43.508;1.504;2023-07-24T02:06:55;10.23;;;7.88;;
34765;SDS011;20984;43.508;1.504;2023-07-24T02:09:20;10.45;;;8.20;;
34765;SDS011;20984;43.508;1.504;2023-07-24T02:11:46;12.52;;;8.05;;
34765;SDS011;20984;43.508;1.504;2023-07-24T02:14:12;14.40;;;8.43;;
34765;SDS011;20984;43.508;1.504;2023-07-24T02:16:39;13.15;;;9.40;;
34765;SDS011;20984;43.508;1.504;2023-07-24T02:19:05;11.85;;;9.77;;
34765;SDS011;20984;43.508;1.504;2023-07-24T02:21:31;11.82;;;8.88;;
34765;SDS011;20984;43.508;1.504;2023-07-24T02:23:57;10.95;;;9.07;;
34765;SDS011;20984;43.508;1.504;2023-07-24T02:26:23;11.63;;;9.52;;
34765;SDS011;20984;43.508;1.504;2023-07-24T02:28:48;11.27;;;8.73;;
34765;SDS011;20984;43.508;1.504;2023-07-24T02:31:14;10.35;;;9.25;;
34765;SDS011;20984;43.508;1.504;2023-07-24T02:33:40;15.35;;;10.10;;
34765;SDS011;20984;43.508;1.504;2023-07-24T02:36:05;13.93;;;10.93;;
34765;SDS011;20984;43.508;1.504;2023-07-24T02:38:31;13.25;;;9.60;;
34765;SDS011;20984;43.508;1.504;2023-07-24T02:40:56;15.45;;;9.68;;
34765;SDS011;20984;43.508;1.504;2023-07-24T02:43:22;14.02;;;9.50;;
34765;SDS011;20984;43.508;1.504;2023-07-24T02:45:48;12.63;;;9.98;;
34765;SDS011;20984;43.508;1.504;2023-07-24T02:48:13;12.75;;;10.10;;
34765;SDS011;20984;43.508;1.504;2023-07-24T02:50:39;16.77;;;11.10;;
34765;SDS011;20984;43.508;1.504;2023-07-24T02:53:05;13.45;;;10.65;;
34765;SDS011;20984;43.508;1.504;2023-07-24T02:55:31;13.48;;;10.75;;
34765;SDS011;20984;43.508;1.504;2023-07-24T02:57:56;14.80;;;10.82;;
34765;SDS011;20984;43.508;1.504;2023-07-24T03:00:22;14.18;;;11.20;;
34765;SDS011;20984;43.508;1.504;2023-07-24T03:02:48;16.45;;;11.57;;
34765;SDS011;20984;43.508;1.504;2023-07-24T03:05:13;17.27;;;11.55;;
34765;SDS011;20984;43.508;1.504;2023-07-24T03:07:39;15.10;;;10.02;;
34765;SDS011;20984;43.508;1.504;2023-07-24T03:10:05;14.18;;;10.88;;
34765;SDS011;20984;43.508;1.504;2023-07-24T03:12:32;12.98;;;10.15;;
34765;SDS011;20984;43.508;1.504;2023-07-24T03:14:58;23.30;;;12.95;;
34765;SDS011;20984;43.508;1.504;2023-07-24T03:17:24;13.60;;;11.18;;
34765;SDS011;20984;43.508;1.504;2023-07-24T03:19:49;15.30;;;11.50;;
34765;SDS011;20984;43.508;1.504;2023-07-24T03:22:15;14.27;;;11.25;;
34765;SDS011;20984;43.508;1.504;2023-07-24T03:24:41;13.25;;;9.63;;
34765;SDS011;20984;43.508;1.504;2023-07-24T03:27:06;16.27;;;8.75;;
34765;SDS011;20984;43.508;1.504;2023-07-24T03:29:32;15.65;;;10.55;;
34765;SDS011;20984;43.508;1.504;2023-07-24T03:31:57;12.80;;;9.77;;
34765;SDS011;20984;43.508;1.504;2023-07-24T03:34:23;14.60;;;10.43;;
34765;SDS011;20984;43.508;1.504;2023-07-24T03:36:49;15.90;;;11.50;;
34765;SDS011;20984;43.508;1.504;2023-07-24T03:39:15;14.85;;;10.82;;
34765;SDS011;20984;43.508;1.504;2023-07-24T03:41:41;15.27;;;10.02;;
34765;SDS011;20984;43.508;1.504;2023-07-24T03:44:07;14.50;;;9.68;;
34765;SDS011;20984;43.508;1.504;2023-07-24T03:46:33;12.27;;;9.25;;
34765;SDS011;20984;43.508;1.504;2023-07-24T03:48:59;15.43;;;10.88;;
34765;SDS011;20984;43.508;1.504;2023-07-24T03:51:24;13.98;;;10.68;;
34765;SDS011;20984;43.508;1.504;2023-07-24T03:53:50;14.57;;;10.38;;
34765;SDS011;20984;43.508;1.504;2023-07-24T03:56:16;14.10;;;11.43;;
34765;SDS011;20984;43.508;1.504;2023-07-24T03:58:41;18.40;;;10.02;;
34765;SDS011;20984;43.508;1.504;2023-07-24T04:01:10;12.98;;;9.45;;
34765;SDS011;20984;43.508;1.504;2023-07-24T04:03:36;11.73;;;9.82;;
34765;SDS011;20984;43.508;1.504;2023-07-24T04:06:01;13.48;;;8.70;;
34765;SDS011;20984;43.508;1.504;2023-07-24T04:08:27;11.32;;;9.07;;
34765;SDS011;20984;43.508;1.504;2023-07-24T04:10:53;9.43;;;7.85;;
34765;SDS011;20984;43.508;1.504;2023-07-24T04:13:21;12.18;;;8.48;;
34765;SDS011;20984;43.508;1.504;2023-07-24T04:15:47;11.98;;;8.30;;
34765;SDS011;20984;43.508;1.504;2023-07-24T04:18:12;11.60;;;7.95;;
34765;SDS011;20984;43.508;1.504;2023-07-24T04:20:38;9.85;;;7.55;;
34765;SDS011;20984;43.508;1.504;2023-07-24T04:23:03;8.90;;;7.38;;
34765;SDS011;20984;43.508;1.504;2023-07-24T04:25:29;11.43;;;8.82;;
34765;SDS011;20984;43.508;1.504;2023-07-24T04:27:55;10.52;;;8.40;;
34765;SDS011;20984;43.508;1.504;2023-07-24T04:30:20;12.27;;;8.00;;
34765;SDS011;20984;43.508;1.504;2023-07-24T04:32:46;11.90;;;8.43;;
34765;SDS011;20984;43.508;1.504;2023-07-24T04:35:11;10.20;;;8.05;;
34765;SDS011;20984;43.508;1.504;2023-07-24T04:37:37;10.57;;;7.95;;
34765;SDS011;20984;43.508;1.504;2023-07-24T04:40:03;13.80;;;9.02;;
34765;SDS011;20984;43.508;1.504;2023-07-24T04:42:30;10.70;;;8.07;;
34765;SDS011;20984;43.508;1.504;2023-07-24T04:44:55;14.32;;;8.25;;
34765;SDS011;20984;43.508;1.504;2023-07-24T04:47:21;9.55;;;7.65;;
34765;SDS011;20984;43.508;1.504;2023-07-24T04:49:47;9.32;;;7.47;;
34765;SDS011;20984;43.508;1.504;2023-07-24T04:52:13;11.13;;;8.93;;
34765;SDS011;20984;43.508;1.504;2023-07-24T04:54:38;9.85;;;7.93;;
34765;SDS011;20984;43.508;1.504;2023-07-24T04:57:04;10.88;;;8.43;;
34765;SDS011;20984;43.508;1.504;2023-07-24T04:59:30;9.20;;;7.90;;
34765;SDS011;20984;43.508;1.504;2023-07-24T05:01:55;12.15;;;7.68;;
34765;SDS011;20984;43.508;1.504;2023-07-24T05:04:21;11.10;;;7.72;;
34765;SDS011;20984;43.508;1.504;2023-07-24T05:06:47;10.13;;;8.23;;
34765;SDS011;20984;43.508;1.504;2023-07-24T05:09:12;9.25;;;6.97;;
34765;SDS011;20984;43.508;1.504;2023-07-24T05:11:39;10.07;;;7.85;;
34765;SDS011;20984;43.508;1.504;2023-07-24T05:14:05;10.93;;;7.25;;
34765;SDS011;20984;43.508;1.504;2023-07-24T05:16:31;9.25;;;7.47;;
34765;SDS011;20984;43.508;1.504;2023-07-24T05:18:56;11.07;;;7.55;;
34765;SDS011;20984;43.508;1.504;2023-07-24T05:21:22;9.95;;;8.10;;
34765;SDS011;20984;43.508;1.504;2023-07-24T05:23:47;8.95;;;7.20;;
34765;SDS011;20984;43.508;1.504;2023-07-24T05:26:13;8.95;;;6.60;;
34765;SDS011;20984;43.508;1.504;2023-07-24T05:28:39;13.00;;;7.35;;
34765;SDS011;20984;43.508;1.504;2023-07-24T05:31:05;8.30;;;7.25;;
34765;SDS011;20984;43.508;1.504;2023-07-24T05:33:31;8.80;;;6.80;;
34765;SDS011;20984;43.508;1.504;2023-07-24T05:36:00;13.02;;;7.47;;
34765;SDS011;20984;43.508;1.504;2023-07-24T05:40:56;10.85;;;7.38;;
34765;SDS011;20984;43.508;1.504;2023-07-24T05:43:23;7.60;;;6.53;;
34765;SDS011;20984;43.508;1.504;2023-07-24T05:45:52;8.85;;;7.25;;
34765;SDS011;20984;43.508;1.504;2023-07-24T05:48:18;8.85;;;7.13;;
34765;SDS011;20984;43.508;1.504;2023-07-24T05:50:44;10.75;;;7.10;;
34765;SDS011;20984;43.508;1.504;2023-07-24T05:53:09;10.40;;;7.07;;
34765;SDS011;20984;43.508;1.504;2023-07-24T05:55:35;9.65;;;6.70;;
34765;SDS011;20984;43.508;1.504;2023-07-24T05:58:01;11.15;;;7.00;;
34765;SDS011;20984;43.508;1.504;2023-07-24T06:00:26;9.23;;;6.97;;
34765;SDS011;20984;43.508;1.504;2023-07-24T06:02:52;8.75;;;6.80;;
34765;SDS011;20984;43.508;1.504;2023-07-24T06:05:19;8.82;;;7.18;;
34765;SDS011;20984;43.508;1.504;2023-07-24T06:07:45;8.38;;;6.70;;
34765;SDS011;20984;43.508;1.504;2023-07-24T06:10:11;8.95;;;6.70;;
34765;SDS011;20984;43.508;1.504;2023-07-24T06:12:37;7.10;;;6.22;;
34765;SDS011;20984;43.508;1.504;2023-07-24T06:15:03;9.45;;;6.50;;
34765;SDS011;20984;43.508;1.504;2023-07-24T06:17:29;10.13;;;6.80;;
34765;SDS011;20984;43.508;1.504;2023-07-24T06:19:55;7.72;;;6.47;;
34765;SDS011;20984;43.508;1.504;2023-07-24T06:22:21;8.35;;;5.82;;
34765;SDS011;20984;43.508;1.504;2023-07-24T06:24:46;9.80;;;7.05;;
34765;SDS011;20984;43.508;1.504;2023-07-24T06:27:12;11.02;;;6.57;;
34765;SDS011;20984;43.508;1.504;2023-07-24T06:29:38;7.22;;;6.32;;
34765;SDS011;20984;43.508;1.504;2023-07-24T06:32:03;10.88;;;6.80;;
34765;SDS011;20984;43.508;1.504;2023-07-24T06:34:29;6.65;;;5.80;;
34765;SDS011;20984;43.508;1.504;2023-07-24T06:36:55;7.82;;;6.70;;
34765;SDS011;20984;43.508;1.504;2023-07-24T06:39:21;8.68;;;6.13;;
34765;SDS011;20984;43.508;1.504;2023-07-24T06:41:47;7.38;;;5.95;;
34765;SDS011;20984;43.508;1.504;2023-07-24T06:44:12;11.77;;;7.13;;
34765;SDS011;20984;43.508;1.504;2023-07-24T06:46:38;9.50;;;5.85;;
34765;SDS011;20984;43.508;1.504;2023-07-24T06:49:04;8.65;;;6.72;;
34765;SDS011;20984;43.508;1.504;2023-07-24T06:51:29;7.43;;;6.30;;
34765;SDS011;20984;43.508;1.504;2023-07-24T06:53:55;9.05;;;5.70;;
34765;SDS011;20984;43.508;1.504;2023-07-24T06:56:20;7.68;;;6.28;;
34765;SDS011;20984;43.508;1.504;2023-07-24T06:58:46;8.30;;;6.18;;
34765;SDS011;20984;43.508;1.504;2023-07-24T07:01:12;8.25;;;7.03;;
34765;SDS011;20984;43.508;1.504;2023-07-24T07:03:37;8.10;;;6.25;;
34765;SDS011;20984;43.508;1.504;2023-07-24T07:06:03;7.22;;;6.00;;
34765;SDS011;20984;43.508;1.504;2023-07-24T07:08:29;8.13;;;6.07;;
34765;SDS011;20984;43.508;1.504;2023-07-24T07:10:56;9.40;;;5.80;;
34765;SDS011;20984;43.508;1.504;2023-07-24T07:13:22;10.90;;;6.68;;
34765;SDS011;20984;43.508;1.504;2023-07-24T07:15:48;7.82;;;5.97;;
34765;SDS011;20984;43.508;1.504;2023-07-24T07:18:13;9.70;;;6.85;;
34765;SDS011;20984;43.508;1.504;2023-07-24T07:20:44;6.82;;;5.53;;
34765;SDS011;20984;43.508;1.504;2023-07-24T07:23:13;6.85;;;5.80;;
34765;SDS011;20984;43.508;1.504;2023-07-24T07:25:39;8.02;;;5.30;;
34765;SDS011;20984;43.508;1.504;2023-07-24T07:28:05;7.65;;;5.53;;
34765;SDS011;20984;43.508;1.504;2023-07-24T07:30:31;7.57;;;5.80;;
34765;SDS011;20984;43.508;1.504;2023-07-24T07:32:56;7.03;;;5.43;;
34765;SDS011;20984;43.508;1.504;2023-07-24T07:35:22;7.97;;;5.20;;
34765;SDS011;20984;43.508;1.504;2023-07-24T07:37:48;7.57;;;5.25;;
34765;SDS011;20984;43.508;1.504;2023-07-24T07:40:14;7.05;;;5.32;;
34765;SDS011;20984;43.508;1.504;2023-07-24T07:42:39;8.07;;;4.93;;
34765;SDS011;20984;43.508;1.504;2023-07-24T07:45:05;8.02;;;5.15;;
34765;SDS011;20984;43.508;1.504;2023-07-24T07:47:31;7.53;;;5.47;;
34765;SDS011;20984;43.508;1.504;2023-07-24T07:49:57;7.97;;;5.43;;
34765;SDS011;20984;43.508;1.504;2023-07-24T07:52:22;8.23;;;5.13;;
34765;SDS011;20984;43.508;1.504;2023-07-24T07:54:48;7.95;;;5.85;;
34765;SDS011;20984;43.508;1.504;2023-07-24T07:57:14;7.95;;;5.80;;
34765;SDS011;20984;43.508;1.504;2023-07-24T07:59:40;6.47;;;5.30;;
34765;SDS011;20984;43.508;1.504;2023-07-24T08:02:06;7.32;;;5.40;;
34765;SDS011;20984;43.508;1.504;2023-07-24T08:04:32;6.38;;;5.50;;
34765;SDS011;20984;43.508;1.504;2023-07-24T08:06:58;8.05;;;5.53;;
34765;SDS011;20984;43.508;1.504;2023-07-24T08:09:23;8.45;;;5.60;;
34765;SDS011;20984;43.508;1.504;2023-07-24T08:11:49;8.88;;;5.40;;
34765;SDS011;20984;43.508;1.504;2023-07-24T08:14:19;8.18;;;6.43;;
34765;SDS011;20984;43.508;1.504;2023-07-24T08:16:44;8.15;;;5.43;;
34765;SDS011;20984;43.508;1.504;2023-07-24T08:19:13;8.30;;;5.72;;
34765;SDS011;20984;43.508;1.504;2023-07-24T08:21:39;7.00;;;5.28;;
34765;SDS011;20984;43.508;1.504;2023-07-24T08:24:05;7.45;;;5.55;;
34765;SDS011;20984;43.508;1.504;2023-07-24T08:26:31;11.77;;;5.10;;
34765;SDS011;20984;43.508;1.504;2023-07-24T08:28:56;6.28;;;5.68;;
34765;SDS011;20984;43.508;1.504;2023-07-24T08:31:22;9.90;;;5.95;;
34765;SDS011;20984;43.508;1.504;2023-07-24T08:33:48;5.97;;;5.38;;
34765;SDS011;20984;43.508;1.504;2023-07-24T08:36:13;6.55;;;4.75;;
34765;SDS011;20984;43.508;1.504;2023-07-24T08:38:39;6.20;;;5.45;;
34765;SDS011;20984;43.508;1.504;2023-07-24T08:41:09;7.97;;;5.38;;
34765;SDS011;20984;43.508;1.504;2023-07-24T08:43:37;7.15;;;5.38;;
34765;SDS011;20984;43.508;1.504;2023-07-24T08:46:04;8.35;;;5.47;;
34765;SDS011;20984;43.508;1.504;2023-07-24T08:48:31;5.97;;;5.38;;
34765;SDS011;20984;43.508;1.504;2023-07-24T08:51:00;7.32;;;5.15;;
34765;SDS011;20984;43.508;1.504;2023-07-24T08:53:30;10.57;;;5.65;;
34765;SDS011;20984;43.508;1.504;2023-07-24T08:56:00;8.30;;;4.93;;
34765;SDS011;20984;43.508;1.504;2023-07-24T08:58:28;7.40;;;4.60;;
34765;SDS011;20984;43.508;1.504;2023-07-24T09:00:55;7.13;;;4.50;;
34765;SDS011;20984;43.508;1.504;2023-07-24T09:03:21;7.50;;;5.35;;
34765;SDS011;20984;43.508;1.504;2023-07-24T09:05:47;7.05;;;4.72;;
34765;SDS011;20984;43.508;1.504;2023-07-24T09:08:13;6.45;;;4.57;;
34765;SDS011;20984;43.508;1.504;2023-07-24T09:10:39;6.75;;;4.47;;
34765;SDS011;20984;43.508;1.504;2023-07-24T09:13:05;6.30;;;4.57;;
34765;SDS011;20984;43.508;1.504;2023-07-24T09:15:40;7.57;;;4.45;;
34765;SDS011;20984;43.508;1.504;2023-07-24T09:18:07;6.35;;;4.25;;
34765;SDS011;20984;43.508;1.504;2023-07-24T09:20:39;6.35;;;4.35;;
34765;SDS011;20984;43.508;1.504;2023-07-24T09:23:06;5.22;;;4.05;;
34765;SDS011;20984;43.508;1.504;2023-07-24T09:25:34;7.63;;;5.70;;
34765;SDS011;20984;43.508;1.504;2023-07-24T09:28:00;6.60;;;4.00;;
34765;SDS011;20984;43.508;1.504;2023-07-24T09:30:33;6.65;;;3.90;;
34765;SDS011;20984;43.508;1.504;2023-07-24T09:32:59;5.85;;;4.10;;
34765;SDS011;20984;43.508;1.504;2023-07-24T09:35:25;4.70;;;3.67;;
34765;SDS011;20984;43.508;1.504;2023-07-24T09:38:14;6.38;;;4.15;;
34765;SDS011;20984;43.508;1.504;2023-07-24T09:40:45;5.45;;;3.85;;
34765;SDS011;20984;43.508;1.504;2023-07-24T09:43:19;5.63;;;3.90;;
34765;SDS011;20984;43.508;1.504;2023-07-24T09:45:46;4.75;;;3.90;;
34765;SDS011;20984;43.508;1.504;2023-07-24T09:48:14;6.65;;;3.97;;
34765;SDS011;20984;43.508;1.504;2023-07-24T09:50:47;4.10;;;3.08;;
34765;SDS011;20984;43.508;1.504;2023-07-24T09:53:18;9.23;;;4.05;;
34765;SDS011;20984;43.508;1.504;2023-07-24T09:55:56;5.90;;;3.85;;
34765;SDS011;20984;43.508;1.504;2023-07-24T09:58:23;4.65;;;3.25;;
34765;SDS011;20984;43.508;1.504;2023-07-24T10:00:51;4.45;;;3.35;;
34765;SDS011;20984;43.508;1.504;2023-07-24T10:03:17;8.13;;;3.60;;
34765;SDS011;20984;43.508;1.504;2023-07-24T10:05:45;6.20;;;3.50;;
34765;SDS011;20984;43.508;1.504;2023-07-24T10:08:11;7.43;;;3.95;;
34765;SDS011;20984;43.508;1.504;2023-07-24T10:10:38;5.72;;;3.38;;
34765;SDS011;20984;43.508;1.504;2023-07-24T10:13:04;5.03;;;2.95;;
34765;SDS011;20984;43.508;1.504;2023-07-24T10:15:31;4.32;;;2.95;;
34765;SDS011;20984;43.508;1.504;2023-07-24T10:18:04;6.90;;;3.35;;
34765;SDS011;20984;43.508;1.504;2023-07-24T10:20:37;3.47;;;3.00;;
34765;SDS011;20984;43.508;1.504;2023-07-24T10:23:05;4.60;;;3.08;;
34765;SDS011;20984;43.508;1.504;2023-07-24T10:25:33;5.25;;;3.20;;
34765;SDS011;20984;43.508;1.504;2023-07-24T10:28:06;4.75;;;2.95;;
34765;SDS011;20984;43.508;1.504;2023-07-24T10:30:42;4.63;;;3.17;;
34765;SDS011;20984;43.508;1.504;2023-07-24T10:33:12;6.13;;;3.38;;
34765;SDS011;20984;43.508;1.504;2023-07-24T10:35:42;6.13;;;2.97;;
34765;SDS011;20984;43.508;1.504;2023-07-24T10:38:08;4.43;;;3.40;;
34765;SDS011;20984;43.508;1.504;2023-07-24T10:40:35;4.38;;;3.08;;
34765;SDS011;20984;43.508;1.504;2023-07-24T10:43:10;4.40;;;3.03;;
34765;SDS011;20984;43.508;1.504;2023-07-24T10:48:17;4.30;;;2.90;;
34765;SDS011;20984;43.508;1.504;2023-07-24T10:50:44;5.38;;;3.50;;
34765;SDS011;20984;43.508;1.504;2023-07-24T10:53:15;5.30;;;3.83;;
34765;SDS011;20984;43.508;1.504;2023-07-24T10:55:44;10.75;;;3.92;;
34765;SDS011;20984;43.508;1.504;2023-07-24T10:58:11;4.50;;;3.13;;
34765;SDS011;20984;43.508;1.504;2023-07-24T11:00:38;5.30;;;2.95;;
34765;SDS011;20984;43.508;1.504;2023-07-24T11:05:34;4.80;;;2.47;;
34765;SDS011;20984;43.508;1.504;2023-07-24T11:07:59;3.65;;;2.60;;
34765;SDS011;20984;43.508;1.504;2023-07-24T11:10:25;4.82;;;2.80;;
34765;SDS011;20984;43.508;1.504;2023-07-24T11:12:51;4.40;;;2.53;;
34765;SDS011;20984;43.508;1.504;2023-07-24T11:15:22;3.70;;;2.50;;
34765;SDS011;20984;43.508;1.504;2023-07-24T11:17:50;4.28;;;2.42;;
34765;SDS011;20984;43.508;1.504;2023-07-24T11:20:16;4.65;;;2.60;;
34765;SDS011;20984;43.508;1.504;2023-07-24T11:22:42;7.15;;;2.53;;
34765;SDS011;20984;43.508;1.504;2023-07-24T11:25:09;3.92;;;2.80;;
34765;SDS011;20984;43.508;1.504;2023-07-24T11:27:39;5.22;;;2.85;;
34765;SDS011;20984;43.508;1.504;2023-07-24T11:30:07;4.32;;;2.05;;
34765;SDS011;20984;43.508;1.504;2023-07-24T11:32:33;3.50;;;2.15;;
34765;SDS011;20984;43.508;1.504;2023-07-24T11:34:59;3.67;;;2.40;;
34765;SDS011;20984;43.508;1.504;2023-07-24T11:37:25;4.32;;;2.00;;
34765;SDS011;20984;43.508;1.504;2023-07-24T11:39:58;3.22;;;2.33;;
34765;SDS011;20984;43.508;1.504;2023-07-24T11:42:26;5.25;;;2.10;;
34765;SDS011;20984;43.508;1.504;2023-07-24T11:44:53;3.25;;;2.00;;
34765;SDS011;20984;43.508;1.504;2023-07-24T11:47:18;4.00;;;2.40;;
34765;SDS011;20984;43.508;1.504;2023-07-24T11:49:44;3.22;;;2.35;;
34765;SDS011;20984;43.508;1.504;2023-07-24T11:52:21;3.70;;;2.10;;
34765;SDS011;20984;43.508;1.504;2023-07-24T11:54:46;3.97;;;2.28;;
34765;SDS011;20984;43.508;1.504;2023-07-24T11:57:25;4.10;;;2.58;;
34765;SDS011;20984;43.508;1.504;2023-07-24T11:59:52;3.83;;;2.45;;
34765;SDS011;20984;43.508;1.504;2023-07-24T12:02:18;5.55;;;2.50;;
34765;SDS011;20984;43.508;1.504;2023-07-24T12:04:44;6.90;;;2.50;;
34765;SDS011;20984;43.508;1.504;2023-07-24T12:07:10;3.35;;;2.03;;
34765;SDS011;20984;43.508;1.504;2023-07-24T12:09:35;4.82;;;2.28;;
34765;SDS011;20984;43.508;1.504;2023-07-24T12:12:03;5.22;;;2.50;;
34765;SDS011;20984;43.508;1.504;2023-07-24T12:14:30;3.10;;;2.35;;
34765;SDS011;20984;43.508;1.504;2023-07-24T12:17:00;4.55;;;2.83;;
34765;SDS011;20984;43.508;1.504;2023-07-24T12:19:26;5.72;;;3.03;;
34765;SDS011;20984;43.508;1.504;2023-07-24T12:21:52;2.85;;;2.08;;
34765;SDS011;20984;43.508;1.504;2023-07-24T12:24:18;2.95;;;2.15;;
34765;SDS011;20984;43.508;1.504;2023-07-24T12:26:43;3.78;;;1.92;;
34765;SDS011;20984;43.508;1.504;2023-07-24T12:29:09;3.45;;;2.22;;
34765;SDS011;20984;43.508;1.504;2023-07-24T12:31:35;3.47;;;2.22;;
34765;SDS011;20984;43.508;1.504;2023-07-24T12:34:00;3.17;;;2.08;;
34765;SDS011;20984;43.508;1.504;2023-07-24T12:36:26;3.63;;;2.25;;
34765;SDS011;20984;43.508;1.504;2023-07-24T12:38:52;4.03;;;2.40;;
34765;SDS011;20984;43.508;1.504;2023-07-24T12:41:18;3.88;;;2.40;;
34765;SDS011;20984;43.508;1.504;2023-07-24T12:43:44;4.90;;;2.50;;
34765;SDS011;20984;43.508;1.504;2023-07-24T12:46:10;5.55;;;2.63;;
34765;SDS011;20984;43.508;1.504;2023-07-24T12:48:35;3.10;;;2.17;;
34765;SDS011;20984;43.508;1.504;2023-07-24T12:51:01;3.75;;;2.25;;
34765;SDS011;20984;43.508;1.504;2023-07-24T12:53:27;6.85;;;2.70;;
34765;SDS011;20984;43.508;1.504;2023-07-24T12:55:53;5.30;;;2.13;;
34765;SDS011;20984;43.508;1.504;2023-07-24T12:58:19;5.50;;;2.88;;
34765;SDS011;20984;43.508;1.504;2023-07-24T13:00:44;3.53;;;2.78;;
34765;SDS011;20984;43.508;1.504;2023-07-24T13:03:10;3.45;;;2.65;;
34765;SDS011;20984;43.508;1.504;2023-07-24T13:05:36;5.50;;;2.60;;
34765;SDS011;20984;43.508;1.504;2023-07-24T13:08:02;5.28;;;2.30;;
34765;SDS011;20984;43.508;1.504;2023-07-24T13:10:28;4.20;;;2.85;;
34765;SDS011;20984;43.508;1.504;2023-07-24T13:12:54;5.22;;;2.65;;
34765;SDS011;20984;43.508;1.504;2023-07-24T13:15:20;3.63;;;1.98;;
34765;SDS011;20984;43.508;1.504;2023-07-24T13:17:45;6.30;;;2.15;;
34765;SDS011;20984;43.508;1.504;2023-07-24T13:20:13;3.22;;;2.65;;
34765;SDS011;20984;43.508;1.504;2023-07-24T13:22:38;4.85;;;2.35;;
34765;SDS011;20984;43.508;1.504;2023-07-24T13:25:05;3.45;;;2.35;;
34765;SDS011;20984;43.508;1.504;2023-07-24T13:27:31;2.90;;;2.10;;
34765;SDS011;20984;43.508;1.504;2023-07-24T13:29:57;4.68;;;2.42;;
34765;SDS011;20984;43.508;1.504;2023-07-24T13:32:23;4.28;;;2.38;;
34765;SDS011;20984;43.508;1.504;2023-07-24T13:34:49;5.18;;;2.40;;
34765;SDS011;20984;43.508;1.504;2023-07-24T13:37:15;4.10;;;2.15;;
34765;SDS011;20984;43.508;1.504;2023-07-24T13:39:40;4.18;;;2.10;;
34765;SDS011;20984;43.508;1.504;2023-07-24T13:42:06;4.20;;;2.33;;
34765;SDS011;20984;43.508;1.504;2023-07-24T13:44:31;5.20;;;2.55;;
34765;SDS011;20984;43.508;1.504;2023-07-24T13:46:57;5.47;;;2.05;;
34765;SDS011;20984;43.508;1.504;2023-07-24T13:49:23;4.18;;;1.77;;
34765;SDS011;20984;43.508;1.504;2023-07-24T13:51:49;3.60;;;1.95;;
34765;SDS011;20984;43.508;1.504;2023-07-24T13:54:15;3.05;;;1.73;;
34765;SDS011;20984;43.508;1.504;2023-07-24T13:56:40;3.88;;;2.30;;
34765;SDS011;20984;43.508;1.504;2023-07-24T13:59:06;2.70;;;1.63;;
34765;SDS011;20984;43.508;1.504;2023-07-24T14:01:31;5.10;;;2.22;;
34765;SDS011;20984;43.508;1.504;2023-07-24T14:03:57;4.15;;;2.22;;
34765;SDS011;20984;43.508;1.504;2023-07-24T14:06:23;3.35;;;2.40;;
34765;SDS011;20984;43.508;1.504;2023-07-24T14:08:48;4.10;;;2.15;;
34765;SDS011;20984;43.508;1.504;2023-07-24T14:11:14;2.55;;;2.10;;
34765;SDS011;20984;43.508;1.504;2023-07-24T14:13:39;3.70;;;2.30;;
34765;SDS011;20984;43.508;1.504;2023-07-24T14:16:05;6.38;;;2.45;;
34765;SDS011;20984;43.508;1.504;2023-07-24T14:18:31;3.47;;;2.45;;
34765;SDS011;20984;43.508;1.504;2023-07-24T14:20:56;4.38;;;2.35;;
34765;SDS011;20984;43.508;1.504;2023-07-24T14:23:24;3.00;;;2.58;;
34765;SDS011;20984;43.508;1.504;2023-07-24T14:25:50;3.28;;;2.65;;
34765;SDS011;20984;43.508;1.504;2023-07-24T14:28:15;3.80;;;2.63;;
34765;SDS011;20984;43.508;1.504;2023-07-24T14:30:41;3.60;;;2.60;;
34765;SDS011;20984;43.508;1.504;2023-07-24T14:33:06;3.17;;;2.50;;
34765;SDS011;20984;43.508;1.504;2023-07-24T14:35:32;3.33;;;2.80;;
34765;SDS011;20984;43.508;1.504;2023-07-24T14:37:58;5.40;;;3.03;;
34765;SDS011;20984;43.508;1.504;2023-07-24T14:40:23;4.20;;;2.75;;
34765;SDS011;20984;43.508;1.504;2023-07-24T14:42:49;3.42;;;2.50;;
34765;SDS011;20984;43.508;1.504;2023-07-24T14:45:14;4.30;;;2.50;;
34765;SDS011;20984;43.508;1.504;2023-07-24T14:47:40;6.38;;;3.13;;
34765;SDS011;20984;43.508;1.504;2023-07-24T14:50:06;3.28;;;2.60;;
34765;SDS011;20984;43.508;1.504;2023-07-24T14:52:32;2.80;;;2.28;;